Time;durP1;ratioP1;P1;durP2;ratioP2;P2;SDS_P1;SDS_P2;PMS_P1;PMS_P2;Temp;Humidity;BMP_temperature;BMP_pressure;BME280_temperature;BME280_humidity;BME280_pressure;Samples;Min_cycle;Max_cycle;Signal;HPM_P1;HPM_P2
2022/06/29 00:00:45;;;;;;;28.15;17.17;;;;;;;;;;6241302;28;20479;-45
2022/06/29 00:03:46;;;;;;;28.90;18.63;;;;;;;;;;6239057;28;20045;-45
2022/06/29 00:06:47;;;;;;;25.03;17.50;;;;;;;;;;6239736;28;20056;-47
2022/06/29 00:09:48;;;;;;;24.63;17.58;;;;;;;;;;6238456;28;20045;-48
2022/06/29 00:12:49;;;;;;;25.50;17.87;;;;;;;;;;6240631;28;20057;-47
2022/06/29 00:15:50;;;;;;;26.57;18.80;;;;;;;;;;6238962;28;20327;-52
2022/06/29 00:18:50;;;;;;;28.87;19.07;;;;;;;;;;6238667;28;20048;-52
2022/06/29 00:21:51;;;;;;;27.10;18.27;;;;;;;;;;6240436;28;20049;-49
2022/06/29 00:24:52;;;;;;;30.17;18.13;;;;;;;;;;6239618;28;20613;-48
2022/06/29 00:27:52;;;;;;;28.83;18.57;;;;;;;;;;6239641;28;20056;-48
2022/06/29 00:30:53;;;;;;;30.53;18.87;;;;;;;;;;6237752;28;20056;-50
2022/06/29 00:33:54;;;;;;;30.20;18.60;;;;;;;;;;6239813;28;20605;-49
2022/06/29 00:36:55;;;;;;;26.77;18.30;;;;;;;;;;6237923;28;20083;-49
2022/06/29 00:39:55;;;;;;;27.53;18.40;;;;;;;;;;6238213;28;20731;-48
2022/06/29 00:42:56;;;;;;;30.90;19.20;;;;;;;;;;6244614;28;20476;-56
2022/06/29 00:45:58;;;;;;;28.70;18.70;;;;;;;;;;6263785;28;20491;-50
2022/06/29 00:48:59;;;;;;;31.52;19.60;;;;;;;;;;6264617;28;20044;-49
2022/06/29 00:52:11;;;;;;;26.67;18.53;;;;;;;;;;6265677;28;20136;-48
2022/06/29 00:55:17;;;;;;;30.00;19.40;;;;;;;;;;6246706;28;20206;-48
2022/06/29 00:58:20;;;;;;;26.17;17.77;;;;;;;;;;6260043;28;20507;-48
2022/06/29 01:01:21;;;;;;;33.60;19.52;;;;;;;;;;6258999;28;20454;-53
2022/06/29 01:04:22;;;;;;;30.23;19.93;;;;;;;;;;6261995;28;20124;-48
2022/06/29 01:07:26;;;;;;;28.37;18.90;;;;;;;;;;6263600;28;20045;-55
2022/06/29 01:10:27;;;;;;;25.27;17.40;;;;;;;;;;6261212;28;20102;-48
2022/06/29 01:13:27;;;;;;;26.38;18.50;;;;;;;;;;6254902;28;20080;-49
2022/06/29 01:16:28;;;;;;;26.17;17.37;;;;;;;;;;6258825;28;20040;-54
2022/06/29 01:19:29;;;;;;;24.67;17.30;;;;;;;;;;6258394;28;20049;-47
2022/06/29 01:22:30;;;;;;;26.97;17.43;;;;;;;;;;6259562;28;20048;-53
2022/06/29 01:25:30;;;;;;;28.37;18.20;;;;;;;;;;6257748;28;20144;-48
2022/06/29 01:28:31;;;;;;;26.47;18.20;;;;;;;;;;6255593;28;20128;-47
2022/06/29 01:31:32;;;;;;;27.88;18.13;;;;;;;;;;6256411;28;20522;-48
2022/06/29 01:34:33;;;;;;;29.20;19.00;;;;;;;;;;6259225;28;20045;-48
2022/06/29 01:37:33;;;;;;;30.40;19.03;;;;;;;;;;6258484;28;20048;-48
2022/06/29 01:40:34;;;;;;;33.10;20.57;;;;;;;;;;6261097;28;20433;-48
2022/06/29 01:43:35;;;;;;;30.63;20.17;;;;;;;;;;6258547;28;20667;-48
2022/06/29 01:46:35;;;;;;;33.03;20.80;;;;;;;;;;6256487;28;20070;-47
2022/06/29 01:49:36;;;;;;;33.77;22.43;;;;;;;;;;6257163;28;20110;-48
2022/06/29 01:52:37;;;;;;;36.13;22.83;;;;;;;;;;6259295;28;20673;-48
2022/06/29 01:55:37;;;;;;;39.50;23.47;;;;;;;;;;6257080;28;20506;-48
2022/06/29 01:58:38;;;;;;;37.80;23.23;;;;;;;;;;6257907;28;20073;-47
2022/06/29 02:01:39;;;;;;;38.65;24.35;;;;;;;;;;6260149;28;20080;-48
2022/06/29 02:04:39;;;;;;;37.47;23.53;;;;;;;;;;6256985;28;20135;-48
2022/06/29 02:07:40;;;;;;;40.80;24.20;;;;;;;;;;6255796;28;20045;-48
2022/06/29 02:10:41;;;;;;;38.27;22.77;;;;;;;;;;6258045;28;20045;-48
2022/06/29 02:13:42;;;;;;;39.93;22.80;;;;;;;;;;6255049;28;20068;-52
2022/06/29 02:16:42;;;;;;;34.80;22.13;;;;;;;;;;6259228;28;20132;-47
2022/06/29 02:19:43;;;;;;;33.23;22.37;;;;;;;;;;6258335;28;20045;-48
2022/06/29 02:22:44;;;;;;;37.60;22.67;;;;;;;;;;6258758;28;20053;-47
2022/06/29 02:25:44;;;;;;;35.67;22.30;;;;;;;;;;6255888;28;20504;-48
2022/06/29 02:28:45;;;;;;;32.67;21.07;;;;;;;;;;6257433;28;20529;-48
2022/06/29 02:35:05;;;;;;;37.00;22.23;;;;;;;;;;6257875;28;20057;-47
2022/06/29 02:38:05;;;;;;;35.37;22.30;;;;;;;;;;6255836;28;20084;-49
2022/06/29 02:41:06;;;;;;;33.20;22.07;;;;;;;;;;6256901;28;20045;-55
2022/06/29 02:44:07;;;;;;;32.53;21.60;;;;;;;;;;6258435;28;20049;-48
2022/06/29 02:47:09;;;;;;;35.37;22.17;;;;;;;;;;6255016;28;20057;-48
2022/06/29 02:50:09;;;;;;;38.80;23.42;;;;;;;;;;6256746;28;20095;-51
2022/06/29 02:53:10;;;;;;;37.37;23.57;;;;;;;;;;6258443;28;20045;-46
2022/06/29 02:56:11;;;;;;;41.20;23.63;;;;;;;;;;6256955;28;20128;-48
2022/06/29 02:59:11;;;;;;;35.10;22.67;;;;;;;;;;6258067;28;20562;-46
2022/06/29 03:02:12;;;;;;;34.93;22.47;;;;;;;;;;6257987;28;20049;-49
2022/06/29 03:05:12;;;;;;;37.77;23.03;;;;;;;;;;6236398;28;20059;-48
2022/06/29 03:08:13;;;;;;;36.27;23.17;;;;;;;;;;6240234;28;20140;-48
2022/06/29 03:11:14;;;;;;;35.07;22.37;;;;;;;;;;6257147;28;20381;-48
2022/06/29 03:14:14;;;;;;;38.67;23.30;;;;;;;;;;6257838;28;20495;-50
2022/06/29 03:17:15;;;;;;;36.20;23.20;;;;;;;;;;6256081;28;20052;-48
2022/06/29 03:20:15;;;;;;;36.10;22.57;;;;;;;;;;6257251;28;20060;-49
2022/06/29 03:23:16;;;;;;;40.47;23.53;;;;;;;;;;6258562;28;20495;-47
2022/06/29 03:26:18;;;;;;;40.63;24.03;;;;;;;;;;6256847;28;20493;-47
2022/06/29 03:29:18;;;;;;;46.22;25.10;;;;;;;;;;6257623;28;20473;-48
2022/06/29 03:32:19;;;;;;;43.50;25.40;;;;;;;;;;6258466;28;20072;-49
2022/06/29 03:35:20;;;;;;;43.77;25.07;;;;;;;;;;6256571;28;20053;-48
2022/06/29 03:38:20;;;;;;;47.37;25.90;;;;;;;;;;6256753;28;20045;-48
2022/06/29 03:41:21;;;;;;;45.37;24.87;;;;;;;;;;6257104;28;20124;-48
2022/06/29 03:44:21;;;;;;;45.50;24.80;;;;;;;;;;6255953;28;20045;-51
2022/06/29 03:47:23;;;;;;;48.77;26.37;;;;;;;;;;6258045;28;20072;-48
2022/06/29 03:50:24;;;;;;;46.20;24.45;;;;;;;;;;6267712;28;20084;-49
2022/06/29 03:53:24;;;;;;;49.93;25.73;;;;;;;;;;6267231;28;20061;-48
2022/06/29 03:56:25;;;;;;;46.00;24.53;;;;;;;;;;6263944;28;20049;-49
2022/06/29 03:59:25;;;;;;;50.30;26.93;;;;;;;;;;6254368;28;20072;-48
2022/06/29 04:02:26;;;;;;;47.77;26.70;;;;;;;;;;6259688;28;20041;-47
2022/06/29 04:05:26;;;;;;;49.00;26.60;;;;;;;;;;6259471;28;20041;-47
2022/06/29 04:08:27;;;;;;;47.47;25.93;;;;;;;;;;6264612;28;20055;-50
2022/06/29 04:14:47;;;;;;;46.88;25.25;;;;;;;;;;6264232;28;20073;-50
2022/06/29 04:17:47;;;;;;;51.70;27.97;;;;;;;;;;6265329;28;20071;-50
2022/06/29 04:21:06;;;;;;;53.37;26.93;;;;;;;;;;6260203;28;20041;-48
2022/06/29 04:24:07;;;;;;;48.67;26.98;;;;;;;;;;6261522;28;20045;-49
2022/06/29 04:27:07;;;;;;;50.72;27.17;;;;;;;;;;6259823;28;20104;-48
2022/06/29 04:30:08;;;;;;;50.30;27.67;;;;;;;;;;6258024;28;20055;-47
2022/06/29 04:33:09;;;;;;;50.53;28.48;;;;;;;;;;6266735;28;20041;-51
2022/06/29 04:36:10;;;;;;;46.57;26.40;;;;;;;;;;6266382;28;20408;-48
2022/06/29 04:39:11;;;;;;;48.43;27.63;;;;;;;;;;6259735;28;20132;-50
2022/06/29 04:42:11;;;;;;;52.67;27.60;;;;;;;;;;6264507;28;20067;-51
2022/06/29 04:46:19;;;;;;;51.30;27.60;;;;;;;;;;6261929;28;20044;-47
2022/06/29 04:48:32;;;;;;;52.53;27.23;;;;;;;;;;6261768;28;20159;-53
2022/06/29 04:51:35;;;;;;;49.20;28.33;;;;;;;;;;6254962;28;20043;-49
2022/06/29 04:54:35;;;;;;;54.22;29.35;;;;;;;;;;6265901;28;20053;-49
2022/06/29 04:57:36;;;;;;;55.93;30.33;;;;;;;;;;6263831;28;20501;-52
2022/06/29 05:00:36;;;;;;;56.50;30.53;;;;;;;;;;6263429;28;20041;-53
2022/06/29 05:03:37;;;;;;;59.27;30.83;;;;;;;;;;6263328;28;20051;-53
2022/06/29 05:06:38;;;;;;;56.77;30.60;;;;;;;;;;6264181;28;20068;-49
2022/06/29 05:09:38;;;;;;;54.67;29.37;;;;;;;;;;6259964;28;20041;-47
2022/06/29 05:12:39;;;;;;;54.30;28.17;;;;;;;;;;6259638;28;20053;-49
2022/06/29 05:15:40;;;;;;;50.00;28.13;;;;;;;;;;6255117;28;20500;-47
2022/06/29 05:18:41;;;;;;;44.58;26.38;;;;;;;;;;6260028;28;20788;-47
2022/06/29 05:21:42;;;;;;;52.07;28.43;;;;;;;;;;6258116;28;20041;-47
2022/06/29 05:24:43;;;;;;;48.67;27.60;;;;;;;;;;6263809;28;20464;-49
2022/06/29 05:27:43;;;;;;;51.33;27.50;;;;;;;;;;6253499;28;20265;-49
2022/06/29 05:30:44;;;;;;;55.37;29.27;;;;;;;;;;6250307;28;20118;-48
2022/06/29 05:33:45;;;;;;;48.17;27.07;;;;;;;;;;6256490;28;20053;-48
2022/06/29 05:36:45;;;;;;;51.63;30.23;;;;;;;;;;6262127;28;20132;-53
2022/06/29 05:39:46;;;;;;;50.13;28.60;;;;;;;;;;6261088;28;20135;-47
2022/06/29 05:42:46;;;;;;;47.93;28.33;;;;;;;;;;6261172;28;20132;-48
2022/06/29 05:45:47;;;;;;;45.47;25.23;;;;;;;;;;6260575;28;20077;-47
2022/06/29 05:48:48;;;;;;;45.43;26.00;;;;;;;;;;6262395;28;20049;-49
2022/06/29 05:51:49;;;;;;;49.07;28.30;;;;;;;;;;6261494;28;20056;-49
2022/06/29 05:54:49;;;;;;;49.33;28.60;;;;;;;;;;6265093;28;20128;-48
2022/06/29 05:57:50;;;;;;;47.17;26.27;;;;;;;;;;6262169;28;20044;-47
2022/06/29 06:00:50;;;;;;;49.60;28.80;;;;;;;;;;6264404;28;20381;-48
2022/06/29 06:03:51;;;;;;;48.73;29.47;;;;;;;;;;6262317;28;20565;-48
2022/06/29 06:06:52;;;;;;;48.33;27.77;;;;;;;;;;6260374;28;20053;-50
2022/06/29 06:09:52;;;;;;;45.63;26.33;;;;;;;;;;6263779;28;20051;-49
2022/06/29 06:12:53;;;;;;;44.20;26.07;;;;;;;;;;6255257;28;20072;-48
2022/06/29 06:15:54;;;;;;;47.30;27.77;;;;;;;;;;6230011;28;20726;-51
2022/06/29 06:18:54;;;;;;;45.03;26.40;;;;;;;;;;6263592;28;20045;-47
2022/06/29 06:21:55;;;;;;;48.47;27.20;;;;;;;;;;6259860;28;20196;-52
2022/06/29 06:24:55;;;;;;;43.47;25.90;;;;;;;;;;6261874;28;20415;-47
2022/06/29 06:27:57;;;;;;;40.37;25.30;;;;;;;;;;6255161;28;20060;-51
2022/06/29 06:30:57;;;;;;;43.47;24.73;;;;;;;;;;6258161;28;20122;-47
2022/06/29 06:33:58;;;;;;;42.20;25.77;;;;;;;;;;6257248;28;20313;-54
2022/06/29 06:36:59;;;;;;;43.83;25.90;;;;;;;;;;6254986;28;20060;-51
2022/06/29 06:43:18;;;;;;;38.45;23.27;;;;;;;;;;6256444;28;20057;-49
2022/06/29 06:46:19;;;;;;;34.87;22.93;;;;;;;;;;6257187;28;20398;-48
2022/06/29 06:49:23;;;;;;;35.13;22.50;;;;;;;;;;6257403;28;20419;-50
2022/06/29 06:52:24;;;;;;;34.20;21.77;;;;;;;;;;6257119;28;20049;-48
2022/06/29 06:55:25;;;;;;;33.27;21.10;;;;;;;;;;6258479;28;20147;-50
2022/06/29 06:58:25;;;;;;;32.80;20.23;;;;;;;;;;6259048;28;20180;-47
2022/06/29 07:01:26;;;;;;;31.40;20.63;;;;;;;;;;6254645;28;20047;-50
2022/06/29 07:04:27;;;;;;;32.28;21.00;;;;;;;;;;6256716;28;20167;-59
2022/06/29 07:07:27;;;;;;;34.67;21.37;;;;;;;;;;6255262;28;20118;-49
2022/06/29 07:10:28;;;;;;;32.03;20.07;;;;;;;;;;6255002;28;20392;-48
2022/06/29 07:13:29;;;;;;;29.53;19.73;;;;;;;;;;6257340;28;20774;-49
2022/06/29 07:16:30;;;;;;;30.80;21.05;;;;;;;;;;6261144;28;20052;-47
2022/06/29 07:19:30;;;;;;;32.47;20.43;;;;;;;;;;6257592;28;20037;-55
2022/06/29 07:22:31;;;;;;;32.30;21.07;;;;;;;;;;6262247;28;20045;-49
2022/06/29 07:25:31;;;;;;;30.13;20.57;;;;;;;;;;6267269;28;20539;-48
2022/06/29 07:28:32;;;;;;;28.93;19.47;;;;;;;;;;6266914;28;20052;-48
2022/06/29 07:31:32;;;;;;;28.53;18.73;;;;;;;;;;6267482;28;20079;-48
2022/06/29 07:34:33;;;;;;;27.70;19.37;;;;;;;;;;6268129;28;20045;-52
2022/06/29 07:37:33;;;;;;;28.80;19.20;;;;;;;;;;6263438;28;20123;-49
2022/06/29 07:40:34;;;;;;;29.77;19.20;;;;;;;;;;6264195;28;20053;-50
2022/06/29 07:43:35;;;;;;;27.67;19.53;;;;;;;;;;6252495;28;20159;-47
2022/06/29 07:46:35;;;;;;;29.67;19.47;;;;;;;;;;6263841;28;20730;-49
2022/06/29 07:49:36;;;;;;;28.57;19.40;;;;;;;;;;6260058;28;20470;-51
2022/06/29 07:52:36;;;;;;;25.63;18.13;;;;;;;;;;6260597;28;20063;-48
2022/06/29 07:55:38;;;;;;;26.50;18.77;;;;;;;;;;6260872;28;20571;-48
2022/06/29 07:58:39;;;;;;;28.83;18.42;;;;;;;;;;6258827;28;20076;-47
2022/06/29 08:01:39;;;;;;;26.13;18.00;;;;;;;;;;6258938;28;20135;-49
2022/06/29 08:04:40;;;;;;;27.53;19.40;;;;;;;;;;6261307;28;20458;-48
2022/06/29 08:07:41;;;;;;;26.83;18.47;;;;;;;;;;6258297;28;20068;-49
2022/06/29 08:10:42;;;;;;;23.57;17.30;;;;;;;;;;6259355;28;20290;-49
2022/06/29 08:13:42;;;;;;;26.03;17.70;;;;;;;;;;6260557;28;20746;-52
2022/06/29 08:16:43;;;;;;;23.43;18.07;;;;;;;;;;6258372;28;20707;-48
2022/06/29 08:19:43;;;;;;;27.10;18.00;;;;;;;;;;6257877;28;20131;-51
2022/06/29 08:22:44;;;;;;;27.07;17.87;;;;;;;;;;6260140;28;20128;-48
2022/06/29 08:25:44;;;;;;;24.77;17.37;;;;;;;;;;6258522;28;20124;-47
2022/06/29 08:28:45;;;;;;;23.73;17.60;;;;;;;;;;6257485;28;20051;-47
2022/06/29 08:31:46;;;;;;;26.47;16.53;;;;;;;;;;6259323;28;20147;-50
2022/06/29 08:34:47;;;;;;;25.17;17.85;;;;;;;;;;6256556;28;20049;-47
2022/06/29 08:37:47;;;;;;;25.13;17.43;;;;;;;;;;6256857;28;20127;-50
2022/06/29 08:40:49;;;;;;;26.38;15.95;;;;;;;;;;6256785;28;20488;-49
2022/06/29 08:43:49;;;;;;;21.70;16.73;;;;;;;;;;6258338;28;20140;-50
2022/06/29 08:46:50;;;;;;;20.85;15.50;;;;;;;;;;6258126;28;20048;-49
2022/06/29 08:49:50;;;;;;;23.70;16.40;;;;;;;;;;6257971;28;20402;-60
2022/06/29 08:52:52;;;;;;;21.43;15.30;;;;;;;;;;6251671;28;20052;-51
2022/06/29 08:55:55;;;;;;;20.40;15.15;;;;;;;;;;6257447;28;20408;-49
2022/06/29 08:58:56;;;;;;;19.58;15.50;;;;;;;;;;6262091;28;20073;-49
2022/06/29 09:01:56;;;;;;;20.98;15.32;;;;;;;;;;6259124;28;20464;-49
2022/06/29 09:04:57;;;;;;;19.43;15.50;;;;;;;;;;6263453;28;20593;-49
2022/06/29 09:07:57;;;;;;;23.10;16.00;;;;;;;;;;6261706;28;20123;-49
2022/06/29 09:11:28;;;;;;;21.58;15.32;;;;;;;;;;6264850;28;20491;-48
2022/06/29 09:14:29;;;;;;;20.17;15.40;;;;;;;;;;6263465;28;20059;-48
2022/06/29 09:17:31;;;;;;;21.27;15.60;;;;;;;;;;6259810;28;20072;-49
2022/06/29 09:20:39;;;;;;;18.20;15.15;;;;;;;;;;6257951;28;20240;-49
2022/06/29 09:23:42;;;;;;;18.85;15.27;;;;;;;;;;6259602;28;20048;-48
2022/06/29 09:26:43;;;;;;;17.65;14.55;;;;;;;;;;6256819;28;20136;-48
2022/06/29 09:29:44;;;;;;;20.00;15.20;;;;;;;;;;6258007;28;20491;-50
2022/06/29 09:33:06;;;;;;;22.08;14.48;;;;;;;;;;6257587;28;20072;-49
2022/06/29 09:36:09;;;;;;;19.65;14.38;;;;;;;;;;6257153;28;20056;-52
2022/06/29 09:39:10;;;;;;;22.33;15.43;;;;;;;;;;6256948;28;20068;-48
2022/06/29 09:42:19;;;;;;;18.98;14.40;;;;;;;;;;6259523;28;20094;-47
2022/06/29 09:45:20;;;;;;;19.65;14.52;;;;;;;;;;6261544;28;20079;-47
2022/06/29 09:48:23;;;;;;;16.88;13.48;;;;;;;;;;6263837;28;20068;-52
2022/06/29 09:51:33;;;;;;;20.65;13.98;;;;;;;;;;6261789;28;20080;-48
2022/06/29 09:54:47;;;;;;;19.90;14.30;;;;;;;;;;6251850;28;20089;-47
2022/06/29 09:57:49;;;;;;;17.73;13.75;;;;;;;;;;6256468;28;20055;-48
2022/06/29 10:04:21;;;;;;;17.95;14.38;;;;;;;;;;6232923;28;20076;-49
2022/06/29 10:07:21;;;;;;;16.38;14.20;;;;;;;;;;6255871;28;20110;-48
2022/06/29 10:10:24;;;;;;;19.25;14.50;;;;;;;;;;6256864;28;20543;-48
2022/06/29 10:13:42;;;;;;;17.83;14.02;;;;;;;;;;6256104;28;20112;-49
2022/06/29 10:16:56;;;;;;;15.60;13.90;;;;;;;;;;6254994;28;20049;-52
2022/06/29 10:20:19;;;;;;;18.48;14.40;;;;;;;;;;6256923;28;20126;-48
2022/06/29 10:23:59;;;;;;;19.73;17.15;;;;;;;;;;6256563;28;20493;-51
2022/06/29 10:27:06;;;;;;;23.98;16.45;;;;;;;;;;6180077;28;20137;-48
2022/06/29 10:30:24;;;;;;;17.92;15.18;;;;;;;;;;6179813;28;20137;-51
2022/06/29 10:33:34;;;;;;;18.02;14.27;;;;;;;;;;6256845;28;20044;-47
2022/06/29 10:36:57;;;;;;;17.20;13.80;;;;;;;;;;6257605;28;20057;-49
2022/06/29 10:40:04;;;;;;;16.35;13.80;;;;;;;;;;6258509;28;20045;-48
2022/06/29 10:43:20;;;;;;;16.17;13.27;;;;;;;;;;6254925;28;20049;-48
2022/06/29 10:46:21;;;;;;;17.77;13.55;;;;;;;;;;6256297;28;20053;-47
2022/06/29 10:49:23;;;;;;;17.02;13.25;;;;;;;;;;6259861;28;20131;-49
2022/06/29 10:52:24;;;;;;;14.85;13.05;;;;;;;;;;6254925;28;20083;-48
2022/06/29 10:55:29;;;;;;;15.88;12.68;;;;;;;;;;6257663;28;21498;-48
2022/06/29 10:58:33;;;;;;;17.33;12.95;;;;;;;;;;6258557;28;20041;-47
2022/06/29 11:01:34;;;;;;;15.55;12.82;;;;;;;;;;6263477;28;20099;-49
2022/06/29 11:04:35;;;;;;;15.93;12.85;;;;;;;;;;6262334;28;20045;-48
2022/06/29 11:17:49;;;;;;;18.33;13.57;;;;;;;;;;6261364;28;20388;-48
2022/06/29 11:20:51;;;;;;;17.40;13.50;;;;;;;;;;6267575;28;20041;-49
2022/06/29 11:24:03;;;;;;;14.52;12.70;;;;;;;;;;6263549;28;20045;-53
2022/06/29 11:27:03;;;;;;;16.00;13.40;;;;;;;;;;6260211;28;20041;-50
2022/06/29 11:30:08;;;;;;;15.80;13.02;;;;;;;;;;6264676;28;20550;-52
2022/06/29 11:33:10;;;;;;;16.83;12.93;;;;;;;;;;6265918;28;20102;-47
2022/06/29 11:36:18;;;;;;;18.08;12.90;;;;;;;;;;6267017;28;20449;-49
2022/06/29 11:39:18;;;;;;;18.05;13.10;;;;;;;;;;6249844;28;20076;-48
2022/06/29 11:45:51;;;;;;;16.38;13.27;;;;;;;;;;6244589;28;20099;-48
2022/06/29 11:52:16;;;;;;;16.33;13.20;;;;;;;;;;6243788;28;20045;-47
2022/06/29 11:55:43;;;;;;;16.10;13.57;;;;;;;;;;6247891;28;20151;-48
2022/06/29 11:58:54;;;;;;;17.17;14.18;;;;;;;;;;6245832;28;20048;-49
2022/06/29 12:01:59;;;;;;;15.03;13.43;;;;;;;;;;6246246;28;20053;-51
2022/06/29 12:05:00;;;;;;;18.60;14.05;;;;;;;;;;6246855;28;20287;-49
2022/06/29 12:08:00;;;;;;;17.50;14.50;;;;;;;;;;6245058;28;20044;-50
2022/06/29 12:11:01;;;;;;;17.50;14.48;;;;;;;;;;6240970;28;20045;-49
2022/06/29 12:14:02;;;;;;;20.40;14.23;;;;;;;;;;6240002;28;20480;-47
2022/06/29 12:17:03;;;;;;;19.42;14.23;;;;;;;;;;6241941;28;20049;-47
2022/06/29 12:20:03;;;;;;;;;;;;;;;;;;6241741;28;20098;-47
2022/06/29 12:23:04;;;;;;;18.00;15.03;;;;;;;;;;6242152;28;20011;-47
2022/06/29 12:26:06;;;;;;;18.90;14.43;;;;;;;;;;6241379;28;20155;-51
2022/06/29 12:29:06;;;;;;;15.93;14.18;;;;;;;;;;6238010;28;20051;-47
2022/06/29 12:32:07;;;;;;;;;;;;;;;;;;6240537;28;20045;-50
2022/06/29 12:35:08;;;;;;;20.57;14.27;;;;;;;;;;6239282;28;19981;-48
2022/06/29 12:38:08;;;;;;;;;;;;;;;;;;6238840;28;20069;-51
2022/06/29 12:41:09;;;;;;;17.73;13.67;;;;;;;;;;6240299;28;19928;-58
2022/06/29 12:44:10;;;;;;;;;;;;;;;;;;6235688;28;20697;-53
2022/06/29 12:47:10;;;;;;;18.47;14.63;;;;;;;;;;6237223;28;19985;-48
2022/06/29 12:50:11;;;;;;;;;;;;;;;;;;6235167;28;20211;-47
2022/06/29 12:53:11;;;;;;;22.97;14.23;;;;;;;;;;6239334;28;19924;-50
2022/06/29 12:56:12;;;;;;;17.92;14.48;;;;;;;;;;6238751;28;20728;-48
2022/06/29 12:59:14;;;;;;;;;;;;;;;;;;6233677;28;20050;-50
2022/06/29 13:02:15;;;;;;;17.90;15.00;;;;;;;;;;6240399;28;19936;-52
2022/06/29 13:05:15;;;;;;;;;;;;;;;;;;6239700;28;20053;-49
2022/06/29 13:08:16;;;;;;;18.67;16.08;;;;;;;;;;6234463;28;20451;-48
2022/06/29 13:11:17;;;;;;;;;;;;;;;;;;6238105;28;20050;-48
2022/06/29 13:14:17;;;;;;;22.30;15.80;;;;;;;;;;6236975;28;19928;-51
2022/06/29 13:17:18;;;;;;;;;;;;;;;;;;6238699;28;20057;-48
2022/06/29 13:20:20;;;;;;;19.77;15.55;;;;;;;;;;6237441;28;19925;-48
2022/06/29 13:23:20;;;;;;;21.25;17.23;;;;;;;;;;6239316;28;20409;-48
2022/06/29 13:26:21;;;;;;;;;;;;;;;;;;6238680;28;20068;-48
2022/06/29 13:29:21;;;;;;;20.47;16.57;;;;;;;;;;6238379;28;19933;-47
2022/06/29 13:32:22;;;;;;;;;;;;;;;;;;6236936;28;21295;-49
2022/06/29 13:35:23;;;;;;;36.90;27.20;;;;;;;;;;6234703;28;19928;-49
2022/06/29 13:38:23;;;;;;;;;;;;;;;;;;6238944;28;20165;-47
2022/06/29 13:41:24;;;;;;;24.53;16.47;;;;;;;;;;6243735;28;19931;-48
2022/06/29 13:44:26;;;;;;;;;;;;;;;;;;6243632;28;20045;-47
2022/06/29 13:47:26;;;;;;;21.92;16.80;;;;;;;;;;6236613;28;20405;-49
2022/06/29 13:50:29;;;;;;;23.40;17.83;;;;;;;;;;6237553;28;20570;-53
2022/06/29 13:53:30;;;;;;;;;;;;;;;;;;6258209;28;20091;-47
2022/06/29 13:56:31;;;;;;;23.93;17.20;;;;;;;;;;6260274;28;19921;-51
2022/06/29 13:59:31;;;;;;;;;;;;;;;;;;6260900;28;20125;-48
2022/06/29 14:02:34;;;;;;;26.05;17.55;;;;;;;;;;6257365;28;19920;-49
2022/06/29 14:05:35;;;;;;;23.05;17.80;;;;;;;;;;6254875;28;20053;-47
2022/06/29 14:08:35;;;;;;;;;;;;;;;;;;6258835;28;20057;-48
2022/06/29 14:11:36;;;;;;;22.30;17.87;;;;;;;;;;6258395;28;20040;-48
2022/06/29 14:14:36;;;;;;;23.25;17.50;;;;;;;;;;6258069;28;20045;-55
2022/06/29 14:17:37;;;;;;;22.55;18.40;;;;;;;;;;6258066;28;20049;-49
2022/06/29 14:20:38;;;;;;;20.48;18.02;;;;;;;;;;6257935;28;20044;-48
2022/06/29 14:23:38;;;;;;;27.83;19.13;;;;;;;;;;6257727;28;20044;-50
2022/06/29 14:26:39;;;;;;;;;;;;;;;;;;6258580;28;20049;-49
2022/06/29 14:29:39;;;;;;;25.17;17.97;;;;;;;;;;6257717;28;20015;-51
2022/06/29 14:32:41;;;;;;;24.25;18.67;;;;;;;;;;6256532;28;20045;-48
2022/06/29 14:35:42;;;;;;;21.92;18.60;;;;;;;;;;6257404;28;20048;-53
2022/06/29 14:38:42;;;;;;;;;;;;;;;;;;6257409;28;20100;-49
2022/06/29 14:41:43;;;;;;;24.47;18.43;;;;;;;;;;6255059;28;20035;-48
2022/06/29 14:44:43;;;;;;;;;;;;;;;;;;6257063;28;20710;-48
2022/06/29 14:47:44;;;;;;;22.87;18.17;;;;;;;;;;6258849;28;19921;-49
2022/06/29 14:50:45;;;;;;;;;;;;;;;;;;6258850;28;20068;-52
2022/06/29 14:53:45;;;;;;;24.10;18.50;;;;;;;;;;6257079;28;20035;-48
2022/06/29 14:56:46;;;;;;;;;;;;;;;;;;6259628;28;20068;-49
2022/06/29 14:59:47;;;;;;;22.20;18.50;;;;;;;;;;6257838;28;20482;-52
2022/06/29 15:02:49;;;;;;;25.70;18.67;;;;;;;;;;6257132;28;20131;-52
2022/06/29 15:05:49;;;;;;;25.08;18.70;;;;;;;;;;6255842;28;20471;-49
2022/06/29 15:08:50;;;;;;;;;;;;;;;;;;6256359;28;20087;-56
2022/06/29 15:11:51;;;;;;;25.37;18.10;;;;;;;;;;6259133;28;19969;-49
2022/06/29 15:14:51;;;;;;;21.70;18.65;;;;;;;;;;6256412;28;20049;-48
2022/06/29 15:17:52;;;;;;;23.67;19.48;;;;;;;;;;6258132;28;20053;-52
2022/06/29 15:20:52;;;;;;;23.55;18.63;;;;;;;;;;6257770;28;20054;-55
2022/06/29 15:23:53;;;;;;;23.83;19.88;;;;;;;;;;6256230;28;20057;-48
2022/06/29 15:26:54;;;;;;;26.30;19.10;;;;;;;;;;6258537;28;20449;-47
2022/06/29 15:29:54;;;;;;;;;;;;;;;;;;6258728;28;21904;-48
2022/06/29 15:32:55;;;;;;;24.07;19.50;;;;;;;;;;6257083;28;19925;-51
2022/06/29 15:39:14;;;;;;;22.30;18.77;;;;;;;;;;6258827;28;19924;-55
2022/06/29 15:42:15;;;;;;;;;;;;;;;;;;6257563;28;20183;-53
2022/06/29 15:45:16;;;;;;;23.60;19.23;;;;;;;;;;6256670;28;19933;-49
2022/06/29 15:48:16;;;;;;;;;;;;;;;;;;6263664;28;20071;-50
2022/06/29 15:51:17;;;;;;;21.70;18.60;;;;;;;;;;6265694;28;19932;-50
2022/06/29 15:57:36;;;;;;;25.10;19.73;;;;;;;;;;6261428;28;19925;-48
2022/06/29 16:00:37;;;;;;;;;;;;;;;;;;6263854;28;20136;-51
2022/06/29 16:03:37;;;;;;;25.60;19.37;;;;;;;;;;6257222;28;20030;-52
2022/06/29 16:06:40;;;;;;;;;;;;;;;;;;6259418;28;20116;-49
2022/06/29 16:09:40;;;;;;;26.35;20.02;;;;;;;;;;6261522;28;20284;-51
2022/06/29 16:12:41;;;;;;;;;;;;;;;;;;6259171;28;20131;-50
2022/06/29 16:15:41;;;;;;;22.87;19.70;;;;;;;;;;6259338;28;20398;-48
2022/06/29 16:18:42;;;;;;;;;;;;;;;;;;6261111;28;20041;-49
2022/06/29 16:21:42;;;;;;;26.85;19.45;;;;;;;;;;6258863;28;19963;-51
2022/06/29 16:24:43;;;;;;;;;;;;;;;;;;6258376;28;20060;-57
2022/06/29 16:27:44;;;;;;;27.97;16.53;;;;;;;;;;6260166;28;19932;-50
2022/06/29 16:30:44;;;;;;;34.45;16.60;;;;;;;;;;6263040;28;20606;-50
2022/06/29 16:33:45;;;;;;;29.35;14.73;;;;;;;;;;6260148;28;20755;-48
2022/06/29 16:36:45;;;;;;;21.20;12.23;;;;;;;;;;6260727;28;20391;-47
2022/06/29 16:39:46;;;;;;;27.85;12.40;;;;;;;;;;6261723;28;20846;-53
2022/06/29 16:42:46;;;;;;;31.67;14.13;;;;;;;;;;6260209;28;20135;-49
2022/06/29 16:45:47;;;;;;;21.57;9.20;;;;;;;;;;6260078;28;20064;-49
2022/06/29 16:48:48;;;;;;;26.07;11.60;;;;;;;;;;6261501;28;20450;-48
2022/06/29 16:51:49;;;;;;;18.67;10.70;;;;;;;;;;6257431;28;21194;-49
2022/06/29 16:54:49;;;;;;;24.92;11.23;;;;;;;;;;6256885;28;22024;-50
2022/06/29 16:57:50;;;;;;;27.98;9.90;;;;;;;;;;6258450;28;20073;-50
2022/06/29 17:00:51;;;;;;;28.10;10.80;;;;;;;;;;6258570;28;20047;-49
2022/06/29 17:03:52;;;;;;;19.80;10.00;;;;;;;;;;6257237;28;20041;-47
2022/06/29 17:06:52;;;;;;;20.80;11.30;;;;;;;;;;6259504;28;20037;-50
2022/06/29 17:09:53;;;;;;;27.47;10.97;;;;;;;;;;6259300;28;20049;-51
2022/06/29 17:12:53;;;;;;;25.13;12.10;;;;;;;;;;6259509;28;20658;-50
2022/06/29 17:15:54;;;;;;;24.20;12.17;;;;;;;;;;6257868;28;20041;-50
2022/06/29 17:18:56;;;;;;;21.80;12.07;;;;;;;;;;6262411;28;20060;-52
2022/06/29 17:21:57;;;;;;;26.95;13.27;;;;;;;;;;6252866;28;20052;-51
2022/06/29 17:24:57;;;;;;;19.90;12.37;;;;;;;;;;6236432;28;20423;-51
2022/06/29 17:27:58;;;;;;;31.57;16.47;;;;;;;;;;6237180;28;20043;-53
2022/06/29 17:30:58;;;;;;;29.23;16.97;;;;;;;;;;6240541;28;20428;-50
2022/06/29 17:33:59;;;;;;;26.10;14.83;;;;;;;;;;6241016;28;20060;-48
2022/06/29 17:37:01;;;;;;;27.30;17.17;;;;;;;;;;6241138;28;20044;-51
2022/06/29 17:40:01;;;;;;;27.25;16.15;;;;;;;;;;6240540;28;20057;-49
2022/06/29 17:43:03;;;;;;;26.83;15.63;;;;;;;;;;6236984;28;20046;-52
2022/06/29 17:46:03;;;;;;;;;;;;;;;;;;6239554;28;20048;-47
2022/06/29 17:49:04;;;;;;;22.35;12.48;;;;;;;;;;6239837;28;20030;-48
2022/06/29 17:52:06;;;;;;;27.63;14.00;;;;;;;;;;6240928;28;20053;-53
2022/06/29 17:55:07;;;;;;;26.02;14.07;;;;;;;;;;6239806;28;20459;-51
2022/06/29 17:58:08;;;;;;;23.35;14.10;;;;;;;;;;6241436;28;21259;-49
2022/06/29 18:01:08;;;;;;;25.87;16.70;;;;;;;;;;6237578;28;20067;-49
2022/06/29 18:04:09;;;;;;;38.03;20.77;;;;;;;;;;6240492;28;20627;-47
2022/06/29 18:07:10;;;;;;;27.67;18.63;;;;;;;;;;6240775;28;20045;-48
2022/06/29 18:10:10;;;;;;;29.50;16.10;;;;;;;;;;6242673;28;20521;-49
2022/06/29 18:13:11;;;;;;;31.50;21.73;;;;;;;;;;6235227;28;20292;-49
2022/06/29 18:16:11;;;;;;;26.03;15.20;;;;;;;;;;6233084;28;20514;-50
2022/06/29 18:19:12;;;;;;;28.27;16.77;;;;;;;;;;6239998;28;20416;-50
2022/06/29 18:22:13;;;;;;;31.83;18.73;;;;;;;;;;6235013;28;20084;-48
2022/06/29 18:25:14;;;;;;;29.40;15.30;;;;;;;;;;6233515;28;20045;-48
2022/06/29 18:28:15;;;;;;;74.53;56.92;;;;;;;;;;6239275;28;20081;-48